Latest Weather Observations for Arlington Reef

IDQ60801

Issued at 9:02 am EST Thursday 18 December 2014 (issued every 30 minutes, with the page automatically refreshed every 10 minutes)

About weather observations | Map of weather stations | Latest weather observations for QLD | Other Formats
Station Details ID: 200879 Name: ARLINGTON REEF Lat: -16.72 Lon: 146.11 Height: 0.0 m
Data from the previous 72 hours. | See also: Recent months at Arlington Reef
Date/Time
EST
Temp
°C
App
Temp
°C
Dew
Point
Rel
Hum
%
Delta-T
°C
Wind Press
QNH
hPa
Press
MSL
hPa
Rain
since 9 am
mm
Dir
 
Spd
km/h
Gust
km/h
Spd
kts
Gust
kts
18/09:00am - - - - - N 7 11 4 6 1012.2 1012.2 -
18/08:30am - - - - - N 6 9 3 5 1012.3 1012.3 -
18/08:00am - - - - - N 6 9 3 5 1012.2 1012.2 -
18/07:30am - - - - - NNE 6 11 3 6 1012.1 1012.1 -
18/07:00am - - - - - N 7 11 4 6 1011.9 1011.9 -
18/06:30am - - - - - NNE 6 9 3 5 1011.5 1011.5 -
18/06:00am - - - - - NNE 6 11 3 6 1011.1 1011.1 -
18/05:30am - - - - - NE 7 9 4 5 1010.4 1010.4 -
18/05:00am - - - - - NNE 7 11 4 6 1010.1 1010.1 -
18/04:30am - - - - - NE 4 6 2 3 1009.8 1009.8 -
18/04:00am - - - - - NE 7 9 4 5 1009.6 1009.6 -
18/03:30am - - - - - NE 6 9 3 5 1009.4 1009.4 -
18/03:00am - - - - - NNE 6 9 3 5 1009.3 1009.3 -
18/02:30am - - - - - NNE 7 13 4 7 1009.1 1009.1 -
18/02:00am - - - - - NNE 9 15 5 8 1009.0 1009.0 -
18/01:30am - - - - - NNE 11 15 6 8 1009.1 1009.1 -
18/01:00am - - - - - NNE 13 19 7 10 1009.3 1009.3 -
18/12:30am - - - - - NNE 9 15 5 8 1010.1 1010.1 -
18/12:00am - - - - - NE 9 15 5 8 1010.6 1010.6 -
 
Date/Time
EST
Temp
°C
App
Temp
°C
Dew
Point
Rel
Hum
%
Delta-T
°C
Wind Press
QNH
hPa
Press
MSL
hPa
Rain
since 9 am
mm
Dir
 
Spd
km/h
Gust
km/h
Spd
kts
Gust
kts
17/11:30pm - - - - - NE 9 15 5 8 1010.8 1010.8 -
17/11:00pm - - - - - NE 9 15 5 8 1010.9 1010.9 -
17/10:30pm - - - - - NE 7 13 4 7 1011.0 1011.0 -
17/10:00pm - - - - - NE 6 9 3 5 1010.6 1010.6 -
17/09:30pm - - - - - ENE 7 11 4 6 1010.2 1010.2 -
17/09:00pm - - - - - ENE 11 15 6 8 1009.2 1009.2 -
17/08:30pm - - - - - NE 13 17 7 9 1008.9 1008.9 -
17/08:00pm - - - - - NE 13 17 7 9 1008.8 1008.8 -
17/07:30pm - - - - - NE 9 13 5 7 1008.7 1008.7 -
17/07:00pm - - - - - NE 13 17 7 9 1008.3 1008.3 -
17/06:30pm - - - - - NE 15 19 8 10 1008.0 1008.0 -
17/06:00pm - - - - - NE 15 17 8 9 1007.8 1007.8 -
17/05:30pm - - - - - NE 15 19 8 10 1007.7 1007.7 -
17/05:00pm - - - - - NE 15 19 8 10 1007.6 1007.6 -
17/04:30pm - - - - - NE 17 19 9 10 1007.7 1007.7 -
17/04:00pm - - - - - NE 17 22 9 12 1007.5 1007.5 -
17/03:30pm - - - - - ENE 17 20 9 11 1007.6 1007.6 -
17/03:00pm - - - - - NE 15 19 8 10 1007.9 1007.9 -
17/02:30pm - - - - - NE 15 19 8 10 1008.1 1008.1 -
17/02:00pm - - - - - NE 13 17 7 9 1008.5 1008.5 -
17/01:30pm - - - - - NE 13 19 7 10 1008.6 1008.6 -
17/01:00pm - - - - - NE 9 15 5 8 1009.0 1009.0 -
17/12:30pm - - - - - NE 9 13 5 7 1009.4 1009.4 -
17/12:00pm - - - - - NE 7 9 4 5 1009.8 1009.8 -
17/11:30am - - - - - NE 6 11 3 6 1010.1 1010.1 -
17/11:00am - - - - - NE 4 7 2 4 1010.4 1010.4 -
17/10:30am - - - - - N 4 6 2 3 1010.5 1010.5 -
17/10:00am - - - - - NNE 6 7 3 4 1010.4 1010.4 -
17/09:30am - - - - - N 4 6 2 3 1010.5 1010.5 -
17/09:00am - - - - - N 4 6 2 3 1010.4 1010.4 -
17/08:30am - - - - - NE 2 4 1 2 1010.3 1010.3 -
17/08:00am - - - - - NE 2 6 1 3 1010.2 1010.2 -
17/07:30am - - - - - NNE 2 7 1 4 1009.9 1009.9 -
17/07:00am - - - - - NE 6 9 3 5 1009.6 1009.6 -
17/06:30am - - - - - NNE 6 7 3 4 1009.5 1009.5 -
17/06:00am - - - - - NNE 6 9 3 5 1009.0 1009.0 -
17/05:30am - - - - - NNE 6 9 3 5 1008.5 1008.5 -
17/05:00am - - - - - NE 7 9 4 5 1008.2 1008.2 -
17/04:30am - - - - - NNE 6 9 3 5 1008.0 1008.0 -
17/04:00am - - - - - NNE 7 9 4 5 1007.7 1007.7 -
17/03:30am - - - - - NE 9 11 5 6 1007.6 1007.6 -
17/03:00am - - - - - NE 7 9 4 5 1007.7 1007.7 -
17/02:30am - - - - - NE 9 11 5 6 1007.7 1007.7 -
17/02:00am - - - - - NE 7 11 4 6 1008.0 1008.0 -
17/01:30am - - - - - NE 7 11 4 6 1008.2 1008.2 -
17/01:00am - - - - - NE 9 15 5 8 1008.6 1008.6 -
17/12:30am - - - - - NE 9 13 5 7 1009.0 1009.0 -
17/12:00am - - - - - NE 9 11 5 6 1009.4 1009.4 -
 
Date/Time
EST
Temp
°C
App
Temp
°C
Dew
Point
Rel
Hum
%
Delta-T
°C
Wind Press
QNH
hPa
Press
MSL
hPa
Rain
since 9 am
mm
Dir
 
Spd
km/h
Gust
km/h
Spd
kts
Gust
kts
16/11:30pm - - - - - NE 9 11 5 6 1009.7 1009.7 -
16/11:00pm - - - - - NE 11 15 6 8 1009.8 1009.8 -
16/10:30pm - - - - - ENE 13 17 7 9 1010.2 1010.2 -
16/10:00pm - - - - - ENE 11 13 6 7 1010.2 1010.2 -
16/09:30pm - - - - - NE 11 15 6 8 1009.8 1009.8 -
16/09:00pm - - - - - ENE 9 13 5 7 1009.7 1009.7 -
16/08:30pm - - - - - E 9 13 5 7 1009.3 1009.3 -
16/08:00pm - - - - - ENE 11 15 6 8 1009.0 1009.0 -
16/07:30pm - - - - - NE 11 15 6 8 1008.8 1008.8 -
16/07:00pm - - - - - ENE 15 19 8 10 1008.7 1008.7 -
16/06:30pm - - - - - ENE 15 22 8 12 1008.5 1008.5 -
16/06:00pm - - - - - ENE 19 22 10 12 1008.1 1008.1 -
16/05:30pm - - - - - ENE 19 22 10 12 1008.0 1008.0 -
16/05:00pm - - - - - ENE 19 22 10 12 1008.0 1008.0 -
16/04:30pm - - - - - ENE 19 22 10 12 1007.9 1007.9 -
16/04:00pm - - - - - ENE 13 17 7 9 1008.1 1008.1 -
16/03:30pm - - - - - E 15 17 8 9 1008.3 1008.3 -
16/03:00pm - - - - - ENE 17 20 9 11 1008.3 1008.3 -
16/02:30pm - - - - - ENE 13 15 7 8 1008.6 1008.6 -
16/02:00pm - - - - - ENE 13 17 7 9 1009.0 1009.0 -
16/01:30pm - - - - - E 11 17 6 9 1009.4 1009.4 -
16/01:00pm - - - - - ENE 11 15 6 8 1009.8 1009.8 -
16/12:30pm - - - - - ENE 9 13 5 7 1010.2 1010.2 -
16/12:00pm - - - - - ENE 9 11 5 6 1010.6 1010.6 -
16/11:30am - - - - - ENE 7 9 4 5 1010.9 1010.9 -
16/11:00am - - - - - ENE 7 9 4 5 1011.1 1011.1 -
16/10:30am - - - - - ENE 7 9 4 5 1011.4 1011.4 -
16/10:00am - - - - - ENE 9 13 5 7 1011.7 1011.7 -
16/09:30am - - - - - E 9 11 5 6 1011.9 1011.9 -
16/09:00am - - - - - E 11 15 6 8 1011.9 1011.9 -
16/08:30am - - - - - E 15 17 8 9 1011.8 1011.8 -
16/08:00am - - - - - ENE 13 15 7 8 1011.7 1011.7 -
16/07:30am - - - - - ENE 13 15 7 8 1011.3 1011.3 -
16/07:00am - - - - - NE 13 17 7 9 1011.0 1011.0 -
16/06:30am - - - - - NE 13 15 7 8 1010.5 1010.5 -
16/06:00am - - - - - NE 11 15 6 8 1010.2 1010.2 -
16/05:30am - - - - - NE 11 15 6 8 1009.6 1009.6 -
16/05:00am - - - - - ENE 11 15 6 8 1009.2 1009.2 -
16/04:30am - - - - - E 13 15 7 8 1008.6 1008.6 -
16/04:00am - - - - - E 15 17 8 9 1008.3 1008.3 -
16/03:30am - - - - - E 13 17 7 9 1008.1 1008.1 -
16/03:00am - - - - - E 11 15 6 8 1008.2 1008.2 -
16/02:30am - - - - - ENE 11 15 6 8 1008.4 1008.4 -
16/02:00am - - - - - ENE 11 13 6 7 1008.4 1008.4 -
16/01:30am - - - - - ENE 9 11 5 6 1008.6 1008.6 -
16/01:00am - - - - - E 9 11 5 6 1008.8 1008.8 -
16/12:30am - - - - - ENE 9 13 5 7 1009.5 1009.5 -
16/12:00am - - - - - ENE 9 11 5 6 1009.9 1009.9 -
 
Date/Time
EST
Temp
°C
App
Temp
°C
Dew
Point
Rel
Hum
%
Delta-T
°C
Wind Press
QNH
hPa
Press
MSL
hPa
Rain
since 9 am
mm
Dir
 
Spd
km/h
Gust
km/h
Spd
kts
Gust
kts
15/11:30pm - - - - - ENE 11 15 6 8 1010.3 1010.3 -
15/11:00pm - - - - - NE 11 13 6 7 1010.7 1010.7 -
15/10:30pm - - - - - NE 13 15 7 8 1010.7 1010.7 -
15/10:00pm - - - - - NE 13 15 7 8 1010.7 1010.7 -
15/09:30pm - - - - - NE 13 15 7 8 1010.8 1010.8 -
15/09:00pm - - - - - NE 13 15 7 8 1010.5 1010.5 -
15/08:30pm - - - - - NE 13 17 7 9 1010.4 1010.4 -
15/08:00pm - - - - - ENE 13 15 7 8 1010.0 1010.0 -
15/07:30pm - - - - - ENE 13 17 7 9 1009.5 1009.5 -
15/07:00pm - - - - - ENE 15 17 8 9 1009.1 1009.1 -
15/06:30pm - - - - - ENE 17 19 9 10 1008.7 1008.7 -
15/06:00pm - - - - - E 15 19 8 10 1008.3 1008.3 -
15/05:30pm - - - - - E 15 17 8 9 1008.2 1008.2 -
15/05:00pm - - - - - E 15 17 8 9 1008.0 1008.0 -
15/04:30pm - - - - - E 15 20 8 11 1007.6 1007.6 -
15/04:00pm - - - - - E 15 19 8 10 1007.4 1007.4 -
15/03:30pm - - - - - E 17 19 9 10 1007.3 1007.3 -
15/03:00pm - - - - - E 17 19 9 10 1007.4 1007.4 -
15/02:30pm - - - - - E 15 17 8 9 1007.8 1007.8 -
15/02:00pm - - - - - ENE 13 17 7 9 1008.3 1008.3 -
15/01:30pm - - - - - ENE 13 15 7 8 1008.8 1008.8 -
15/01:00pm - - - - - ENE 13 17 7 9 1009.5 1009.5 -
15/12:30pm - - - - - E 11 15 6 8 1010.0 1010.0 -
15/12:00pm - - - - - E 13 15 7 8 1010.4 1010.4 -
15/11:30am - - - - - E 15 17 8 9 1010.6 1010.6 -
15/11:00am - - - - - ESE 13 17 7 9 1010.7 1010.7 -
15/10:30am - - - - - ESE 13 17 7 9 1010.9 1010.9 -
15/10:00am - - - - - ESE 13 17 7 9 1010.7 1010.7 -
15/09:30am - - - - - E 17 20 9 11 1010.6 1010.6 -

Other Formats:

Comma delimited format used in spreadsheet applications
http://www.bom.gov.au/fwo/IDQ60801/IDQ60801.94284.axf

JavaScript Object Notation format (JSON) in row-major order
http://www.bom.gov.au/fwo/IDQ60801/IDQ60801.94284.json